createdAt,value
2022-08-20T00:00:00.281Z,78
2022-08-20T00:10:00.275Z,78
2022-08-20T00:20:00.285Z,78
2022-08-20T00:30:00.340Z,79
2022-08-20T00:40:00.639Z,79
2022-08-20T00:50:00.351Z,79
2022-08-20T01:00:00.295Z,79
2022-08-20T01:10:00.276Z,79
2022-08-20T01:20:00.302Z,79
2022-08-20T01:30:07.028Z,79
2022-08-20T01:40:00.519Z,79
2022-08-20T01:50:00.320Z,79
2022-08-20T02:00:00.288Z,79
2022-08-20T02:10:00.282Z,79
2022-08-20T02:20:00.281Z,79
2022-08-20T02:30:00.323Z,79
2022-08-20T02:40:00.450Z,80
2022-08-20T02:50:00.355Z,80
2022-08-20T03:00:00.298Z,79
2022-08-20T03:10:00.259Z,79
2022-08-20T03:20:00.290Z,79
2022-08-20T03:30:00.375Z,79
2022-08-20T03:40:00.633Z,79
2022-08-20T03:50:00.357Z,80
2022-08-20T04:00:00.278Z,79
2022-08-20T04:10:00.302Z,79
2022-08-20T04:20:00.287Z,80
2022-08-20T04:30:00.287Z,80
2022-08-20T04:40:00.582Z,80
2022-08-20T04:50:00.411Z,80
2022-08-20T05:00:00.274Z,80
2022-08-20T05:10:00.286Z,80
2022-08-20T05:20:00.284Z,81
2022-08-20T05:30:00.304Z,81
2022-08-20T05:40:02.852Z,81
2022-08-20T05:50:00.343Z,81
2022-08-20T06:00:00.321Z,81
2022-08-20T06:10:00.313Z,81
2022-08-20T06:20:00.289Z,82
2022-08-20T06:30:00.335Z,82
2022-08-20T06:40:00.602Z,82
2022-08-20T06:50:00.366Z,82
2022-08-20T07:00:00.375Z,82
2022-08-20T07:10:00.295Z,83
2022-08-20T07:20:00.275Z,83
2022-08-20T07:30:00.305Z,81
2022-08-20T07:40:00.709Z,81
2022-08-20T07:50:00.356Z,79
2022-08-20T08:00:00.296Z,76
2022-08-20T08:10:00.363Z,73
2022-08-20T08:20:00.362Z,69
2022-08-20T08:30:00.303Z,69
2022-08-20T08:40:00.454Z,66
2022-08-20T08:50:00.521Z,65
2022-08-20T09:00:05.370Z,63
2022-08-20T09:10:00.458Z,62
2022-08-20T09:20:00.327Z,61
2022-08-20T09:30:00.426Z,59
2022-08-20T09:40:00.495Z,58
2022-08-20T09:50:00.357Z,56
2022-08-20T10:00:00.286Z,58
2022-08-20T10:10:00.273Z,58
2022-08-20T10:20:00.281Z,59
2022-08-20T10:30:00.261Z,58
2022-08-20T10:40:00.565Z,58
2022-08-20T10:50:00.334Z,59
2022-08-20T11:00:00.330Z,59
2022-08-20T11:10:00.425Z,59
2022-08-20T11:20:00.325Z,61
2022-08-20T11:30:00.295Z,65
2022-08-20T11:40:00.641Z,66
2022-08-20T11:50:00.370Z,67
2022-08-20T12:00:00.297Z,69
2022-08-20T12:10:00.452Z,70
2022-08-20T12:20:00.292Z,71
2022-08-20T12:30:00.359Z,72
2022-08-20T12:40:00.577Z,72
2022-08-20T12:50:00.398Z,73
2022-08-20T13:00:00.590Z,74
2022-08-20T13:10:00.387Z,74
2022-08-20T13:20:00.286Z,75
2022-08-20T13:30:02.401Z,76
2022-08-20T13:40:00.528Z,76
2022-08-20T13:50:00.453Z,78
2022-08-20T14:00:00.291Z,79
2022-08-20T14:10:00.291Z,79
2022-08-20T14:20:01.942Z,80
2022-08-20T14:30:00.298Z,80
2022-08-20T14:40:00.524Z,80
2022-08-20T14:50:00.348Z,80
2022-08-20T15:00:00.321Z,80
2022-08-20T15:10:00.294Z,80
2022-08-20T15:20:00.275Z,80
2022-08-20T15:30:00.420Z,80
2022-08-20T15:40:00.654Z,80
2022-08-20T15:50:00.603Z,80
2022-08-20T16:00:00.315Z,79
2022-08-20T16:10:00.320Z,79
2022-08-20T16:20:00.304Z,78
2022-08-20T16:30:00.315Z,79
2022-08-20T16:40:00.500Z,79
2022-08-20T16:50:00.344Z,79
2022-08-20T17:00:00.304Z,79
2022-08-20T17:10:03.005Z,80
2022-08-20T17:20:00.480Z,80
2022-08-20T17:30:00.288Z,80
2022-08-20T17:40:00.698Z,80
2022-08-20T17:50:03.305Z,80
2022-08-20T18:00:02.758Z,81
2022-08-20T18:10:00.278Z,81
2022-08-20T18:20:00.304Z,81
2022-08-20T18:30:00.306Z,80
2022-08-20T18:40:00.538Z,80
2022-08-20T18:50:00.315Z,80
2022-08-20T19:00:00.349Z,80
2022-08-20T19:10:00.603Z,80
2022-08-20T19:20:00.288Z,80
2022-08-20T19:30:00.298Z,80
2022-08-20T19:40:00.648Z,81
2022-08-20T19:50:00.287Z,81
2022-08-20T20:00:00.297Z,81
2022-08-20T20:10:00.355Z,81
2022-08-20T20:20:00.310Z,80
2022-08-20T20:30:00.309Z,80
2022-08-20T20:40:01.126Z,80
2022-08-20T20:50:00.309Z,80
2022-08-20T21:00:00.328Z,79
2022-08-20T21:10:00.295Z,80
2022-08-20T21:20:00.342Z,80
2022-08-20T21:30:00.299Z,80
2022-08-20T21:40:00.587Z,80
2022-08-20T21:50:00.289Z,80
2022-08-20T22:00:00.724Z,80
2022-08-20T22:10:00.314Z,80
2022-08-20T22:20:00.308Z,80
2022-08-20T22:30:00.346Z,80
2022-08-20T22:40:00.637Z,80
2022-08-20T22:50:00.302Z,79
2022-08-20T23:00:00.317Z,80
2022-08-20T23:10:00.318Z,80
2022-08-20T23:20:00.283Z,80
2022-08-20T23:30:00.307Z,80
2022-08-20T23:40:00.548Z,79
2022-08-20T23:50:00.300Z,79
